Time;durP1;ratioP1;P1;durP2;ratioP2;P2;SDS_P1;SDS_P2;PMS_P1;PMS_P2;Temp;Humidity;BMP_temperature;BMP_pressure;BME280_temperature;BME280_humidity;BME280_pressure;Samples;Min_cycle;Max_cycle;Signal;HPM_P1;HPM_P2
2021/06/30 00:01:46;;;;;;;3.00;0.55;;;22.20;76.40;;;;;;4196588;28;20550;-46
2021/06/30 00:04:13;;;;;;;0.00;0.00;;;22.20;76.40;;;;;;4208952;28;20463;-49
2021/06/30 00:06:35;;;;;;;0.00;0.00;;;22.20;76.40;;;;;;4208367;28;20055;-50
2021/06/30 00:09:02;;;;;;;0.70;0.70;;;22.20;76.40;;;;;;4208415;28;20202;-46
2021/06/30 00:11:29;;;;;;;0.25;0.25;;;22.20;76.40;;;;;;4207701;28;20117;-48
2021/06/30 00:13:58;;;;;;;0.00;0.00;;;22.20;76.40;;;;;;4208256;28;20155;-50
2021/06/30 00:16:30;;;;;;;0.00;0.00;;;22.20;76.40;;;;;;4208183;28;20036;-47
2021/06/30 00:19:01;;;;;;;0.00;0.00;;;22.20;76.40;;;;;;4207851;28;20044;-52
2021/06/30 00:21:28;;;;;;;0.10;0.10;;;22.20;76.40;;;;;;4192759;28;20562;-48
2021/06/30 00:23:55;;;;;;;0.00;0.00;;;22.20;76.40;;;;;;4191112;28;20078;-48
2021/06/30 00:26:23;;;;;;;0.00;0.00;;;22.20;76.40;;;;;;4191619;28;20127;-50
2021/06/30 00:28:49;;;;;;;0.00;0.00;;;22.20;76.40;;;;;;4191119;28;20044;-48
2021/06/30 00:31:18;;;;;;;3.80;1.23;;;22.20;77.30;;;;;;4188312;28;20480;-49
2021/06/30 00:33:45;;;;;;;0.57;0.57;;;22.20;76.40;;;;;;4190996;28;20044;-46
2021/06/30 00:36:12;;;;;;;1.95;1.05;;;22.20;76.40;;;;;;4191541;28;20048;-47
2021/06/30 00:38:35;;;;;;;0.45;0.45;;;22.20;76.40;;;;;;4206270;28;20047;-52
2021/06/30 00:41:02;;;;;;;0.10;0.10;;;22.20;77.30;;;;;;4208358;28;20075;-50
2021/06/30 00:43:29;;;;;;;0.00;0.00;;;22.20;76.40;;;;;;4190226;28;20048;-48
2021/06/30 00:45:56;;;;;;;1.08;0.98;;;22.20;76.50;;;;;;4194829;28;20048;-53
2021/06/30 00:48:24;;;;;;;0.00;0.00;;;22.20;76.50;;;;;;4208009;28;20050;-47
2021/06/30 00:50:51;;;;;;;0.15;0.15;;;22.20;76.50;;;;;;4207837;28;20067;-49
2021/06/30 00:53:18;;;;;;;0.90;0.65;;;22.20;76.50;;;;;;4199686;28;20076;-49
2021/06/30 00:55:49;;;;;;;0.95;0.90;;;22.20;76.50;;;;;;4199163;28;20044;-52
2021/06/30 00:58:16;;;;;;;0.00;0.00;;;22.20;76.50;;;;;;4203004;28;20410;-49
2021/06/30 01:00:43;;;;;;;0.30;0.30;;;22.20;76.50;;;;;;4207530;28;20051;-54
2021/06/30 01:03:10;;;;;;;0.00;0.00;;;22.20;76.40;;;;;;4207732;28;20755;-49
2021/06/30 01:05:38;;;;;;;0.00;0.00;;;22.20;76.50;;;;;;4206322;28;20048;-51
2021/06/30 01:08:06;;;;;;;0.00;0.00;;;22.20;76.40;;;;;;4204745;28;20055;-49
2021/06/30 01:10:33;;;;;;;0.28;0.28;;;22.20;76.40;;;;;;4207527;28;20036;-47
2021/06/30 01:13:00;;;;;;;0.00;0.00;;;22.20;76.50;;;;;;4191212;28;20037;-48
2021/06/30 01:15:27;;;;;;;0.05;0.05;;;22.20;76.50;;;;;;4179687;28;20075;-48
2021/06/30 01:17:53;;;;;;;0.00;0.00;;;22.10;76.50;;;;;;4190421;28;20502;-48
2021/06/30 01:20:20;;;;;;;0.32;0.32;;;22.20;76.50;;;;;;4189645;28;20461;-48
2021/06/30 01:23:03;;;;;;;0.28;0.28;;;22.20;76.50;;;;;;4207085;28;20133;-46
2021/06/30 01:25:30;;;;;;;0.98;0.98;;;22.20;76.50;;;;;;4207111;28;20044;-47
2021/06/30 01:27:57;;;;;;;0.00;0.00;;;22.20;76.50;;;;;;4207342;28;20047;-50
2021/06/30 01:30:24;;;;;;;0.00;0.00;;;22.10;76.50;;;;;;4206751;28;20059;-47
2021/06/30 01:32:51;;;;;;;0.20;0.20;;;22.10;76.50;;;;;;4206084;28;20094;-46
2021/06/30 01:35:22;;;;;;;0.20;0.20;;;22.10;76.50;;;;;;4207223;28;20048;-47
2021/06/30 01:37:50;;;;;;;2.33;1.20;;;22.10;76.60;;;;;;4206353;28;20316;-48
2021/06/30 01:40:19;;;;;;;0.00;0.00;;;22.10;76.60;;;;;;4207154;28;20278;-45
2021/06/30 01:42:47;;;;;;;0.10;0.10;;;22.10;77.10;;;;;;4190461;28;20036;-48
2021/06/30 01:45:14;;;;;;;0.00;0.00;;;22.10;76.60;;;;;;4189319;28;20108;-49
2021/06/30 01:47:41;;;;;;;0.00;0.00;;;22.10;76.70;;;;;;4190565;28;21173;-48
2021/06/30 01:50:09;;;;;;;0.00;0.00;;;22.10;76.70;;;;;;4189252;28;20041;-47
2021/06/30 01:52:36;;;;;;;0.20;0.20;;;22.10;76.70;;;;;;4190546;28;20079;-45
2021/06/30 01:55:07;;;;;;;0.35;0.35;;;22.00;76.70;;;;;;4192275;28;20387;-46
2021/06/30 01:57:33;;;;;;;0.17;0.17;;;22.10;76.80;;;;;;4193635;28;20387;-46
2021/06/30 02:00:00;;;;;;;0.00;0.00;;;22.10;76.80;;;;;;4193937;28;20052;-45
2021/06/30 02:02:31;;;;;;;0.20;0.20;;;22.00;76.80;;;;;;4193607;28;20048;-44
2021/06/30 02:05:07;;;;;;;0.00;0.00;;;22.10;76.90;;;;;;4206992;28;20047;-47
2021/06/30 02:07:31;;;;;;;0.55;0.52;;;22.00;76.80;;;;;;4192135;28;20101;-45
2021/06/30 02:09:58;;;;;;;0.00;0.00;;;22.00;76.90;;;;;;4193279;28;20053;-48
2021/06/30 02:12:26;;;;;;;0.80;0.80;;;22.10;76.90;;;;;;4208695;28;20056;-49
2021/06/30 02:14:53;;;;;;;0.20;0.20;;;22.00;76.80;;;;;;4210194;28;20050;-45
2021/06/30 02:17:20;;;;;;;0.00;0.00;;;22.00;76.90;;;;;;4193791;28;20048;-47
2021/06/30 02:19:49;;;;;;;0.28;0.28;;;22.00;77.00;;;;;;4210072;28;20136;-50
2021/06/30 02:22:16;;;;;;;0.05;0.05;;;21.90;76.90;;;;;;4190904;28;20056;-47
2021/06/30 02:24:44;;;;;;;0.00;0.00;;;22.00;77.00;;;;;;4205588;28;20137;-44
2021/06/30 02:27:12;;;;;;;0.38;0.38;;;21.90;76.90;;;;;;4209836;28;20054;-50
2021/06/30 02:29:40;;;;;;;0.00;0.00;;;21.90;76.90;;;;;;4208511;28;20056;-49
2021/06/30 02:32:08;;;;;;;1.10;1.08;;;21.90;77.00;;;;;;4207997;28;20048;-50
2021/06/30 02:34:35;;;;;;;0.10;0.10;;;21.90;77.00;;;;;;4209942;28;20044;-49
2021/06/30 02:37:02;;;;;;;0.00;0.00;;;21.90;77.80;;;;;;4193417;28;20056;-48
2021/06/30 02:39:29;;;;;;;0.10;0.10;;;21.90;77.00;;;;;;4193197;28;20131;-52
2021/06/30 02:41:57;;;;;;;0.10;0.10;;;21.90;77.00;;;;;;4178768;28;20128;-47
2021/06/30 02:44:24;;;;;;;0.70;0.70;;;21.90;77.00;;;;;;4177628;28;20132;-50
2021/06/30 02:46:52;;;;;;;0.00;0.00;;;21.90;77.00;;;;;;4177597;28;20716;-48
2021/06/30 02:49:19;;;;;;;0.20;0.20;;;21.90;77.00;;;;;;4192821;28;20059;-49
2021/06/30 02:51:46;;;;;;;0.03;0.03;;;21.90;77.00;;;;;;4192406;28;20102;-47
2021/06/30 02:54:13;;;;;;;0.05;0.05;;;21.90;77.00;;;;;;4191861;28;20056;-47
2021/06/30 02:56:40;;;;;;;0.00;0.00;;;21.80;77.80;;;;;;4209102;28;20105;-48
2021/06/30 02:59:07;;;;;;;0.00;0.00;;;21.90;77.00;;;;;;4208698;28;20040;-47
2021/06/30 03:01:37;;;;;;;0.10;0.10;;;21.80;77.00;;;;;;4208640;28;20134;-48
2021/06/30 03:04:05;;;;;;;0.13;0.13;;;21.80;77.00;;;;;;4207818;28;20047;-51
2021/06/30 03:06:33;;;;;;;0.52;0.52;;;21.90;77.10;;;;;;4192760;28;20044;-48
2021/06/30 03:08:59;;;;;;;0.10;0.10;;;21.80;77.10;;;;;;4192637;28;20605;-53
2021/06/30 03:11:26;;;;;;;0.00;0.00;;;21.80;77.10;;;;;;4182656;28;20465;-47
2021/06/30 03:13:53;;;;;;;0.77;0.77;;;21.80;77.10;;;;;;4176613;28;20043;-49
2021/06/30 03:16:20;;;;;;;0.00;0.00;;;21.80;77.10;;;;;;4192553;28;20523;-50
2021/06/30 03:18:47;;;;;;;0.80;0.45;;;21.80;77.10;;;;;;4192320;28;20474;-49
2021/06/30 03:21:15;;;;;;;0.13;0.13;;;21.80;77.00;;;;;;4207714;28;20043;-46
2021/06/30 03:23:42;;;;;;;0.20;0.20;;;21.80;77.00;;;;;;4209376;28;20066;-46
2021/06/30 03:26:09;;;;;;;0.20;0.20;;;21.80;77.00;;;;;;4209502;28;20417;-47
2021/06/30 03:28:36;;;;;;;0.00;0.00;;;21.80;77.00;;;;;;4208831;28;20058;-45
2021/06/30 03:31:03;;;;;;;0.00;0.00;;;21.80;76.90;;;;;;4208554;28;20124;-47
2021/06/30 03:33:30;;;;;;;0.00;0.00;;;21.80;76.90;;;;;;4208147;28;20139;-48
2021/06/30 03:35:57;;;;;;;0.00;0.00;;;21.80;77.10;;;;;;4208945;28;20059;-48
2021/06/30 03:38:25;;;;;;;1.63;1.35;;;21.80;77.40;;;;;;4207384;28;20148;-48
2021/06/30 03:40:52;;;;;;;0.10;0.10;;;21.80;77.50;;;;;;4207871;28;20052;-50
2021/06/30 03:43:19;;;;;;;0.80;0.80;;;21.80;77.60;;;;;;4208167;28;20079;-48
2021/06/30 03:45:46;;;;;;;0.30;0.30;;;21.80;77.60;;;;;;4209281;28;20040;-50
2021/06/30 03:48:13;;;;;;;0.20;0.20;;;21.80;77.70;;;;;;4208620;28;20109;-49
2021/06/30 03:50:39;;;;;;;0.08;0.08;;;21.80;77.60;;;;;;4205079;28;20051;-52
2021/06/30 03:53:06;;;;;;;0.13;0.13;;;21.70;77.50;;;;;;4221731;28;20502;-53
2021/06/30 03:55:34;;;;;;;0.55;0.55;;;21.80;77.60;;;;;;4208951;28;20063;-48
2021/06/30 03:58:02;;;;;;;0.38;0.38;;;21.70;77.60;;;;;;4208389;28;20040;-46
2021/06/30 04:00:29;;;;;;;0.40;0.40;;;21.70;77.60;;;;;;4207500;28;20112;-49
2021/06/30 04:02:56;;;;;;;0.38;0.38;;;21.70;77.60;;;;;;4208447;28;20490;-50
2021/06/30 04:05:23;;;;;;;4.68;1.00;;;21.70;78.50;;;;;;4208181;28;20044;-50
2021/06/30 04:07:51;;;;;;;0.10;0.10;;;21.70;77.60;;;;;;4208431;28;21026;-49
2021/06/30 04:10:18;;;;;;;2.08;0.32;;;21.70;77.60;;;;;;4191366;28;20101;-49
2021/06/30 04:12:47;;;;;;;0.52;0.52;;;21.70;77.60;;;;;;4208140;28;20480;-47
2021/06/30 04:15:14;;;;;;;0.22;0.22;;;21.70;77.60;;;;;;4208086;28;20048;-46
2021/06/30 04:17:41;;;;;;;0.15;0.15;;;21.70;77.60;;;;;;4208043;28;20052;-51
2021/06/30 04:20:11;;;;;;;1.13;0.85;;;21.70;77.60;;;;;;4206872;28;20048;-48
2021/06/30 04:22:38;;;;;;;0.00;0.00;;;21.70;77.50;;;;;;4208263;28;20052;-49
2021/06/30 04:25:07;;;;;;;0.00;0.00;;;21.70;77.40;;;;;;4208035;28;20036;-53
2021/06/30 04:27:35;;;;;;;1.55;1.00;;;21.70;77.30;;;;;;4208492;28;20440;-49
2021/06/30 04:30:07;;;;;;;0.00;0.00;;;21.70;77.50;;;;;;4207548;28;20050;-51
2021/06/30 04:32:34;;;;;;;0.43;0.30;;;21.70;77.40;;;;;;4191348;28;20048;-48
2021/06/30 04:34:56;;;;;;;0.00;0.00;;;21.70;77.30;;;;;;4186887;28;20475;-48
2021/06/30 04:37:23;;;;;;;2.42;2.17;;;21.70;77.30;;;;;;4208407;28;20131;-51
2021/06/30 04:39:49;;;;;;;0.13;0.13;;;21.70;77.30;;;;;;4206528;28;20530;-53
2021/06/30 04:42:18;;;;;;;0.00;0.00;;;21.70;77.50;;;;;;4207572;28;20043;-53
2021/06/30 04:44:45;;;;;;;0.00;0.00;;;21.70;77.50;;;;;;4207849;28;20052;-50
2021/06/30 04:47:13;;;;;;;0.47;0.47;;;21.70;77.50;;;;;;4203488;28;20486;-48
2021/06/30 04:49:40;;;;;;;0.05;0.05;;;21.70;77.50;;;;;;4207235;28;20060;-51
2021/06/30 04:52:07;;;;;;;0.00;0.00;;;21.70;77.50;;;;;;4207679;28;20052;-47
2021/06/30 04:54:34;;;;;;;0.47;0.47;;;21.70;77.50;;;;;;4207942;28;20051;-51
2021/06/30 04:57:01;;;;;;;0.00;0.00;;;21.70;77.50;;;;;;4200638;28;20411;-46
2021/06/30 04:59:28;;;;;;;0.05;0.05;;;21.70;77.50;;;;;;4206523;28;20144;-50
2021/06/30 05:01:55;;;;;;;0.57;0.57;;;21.70;77.50;;;;;;4207895;28;20066;-52
2021/06/30 05:04:24;;;;;;;0.30;0.30;;;21.70;77.50;;;;;;4190262;28;20615;-48
2021/06/30 05:06:51;;;;;;;0.70;0.70;;;21.70;77.50;;;;;;4207449;28;20040;-49
2021/06/30 05:09:18;;;;;;;0.00;0.00;;;21.70;77.50;;;;;;4206750;28;20090;-52
2021/06/30 05:11:45;;;;;;;0.00;0.00;;;21.70;77.60;;;;;;4206612;28;20047;-49
2021/06/30 05:14:12;;;;;;;0.10;0.10;;;21.70;77.80;;;;;;4207827;28;20098;-46
2021/06/30 05:16:39;;;;;;;0.75;0.43;;;21.70;77.80;;;;;;4207161;28;20077;-48
2021/06/30 05:19:06;;;;;;;0.30;0.30;;;21.70;78.00;;;;;;4206396;28;20043;-47
2021/06/30 05:21:34;;;;;;;0.00;0.00;;;21.70;78.10;;;;;;4193391;28;20056;-48
2021/06/30 05:24:01;;;;;;;0.20;0.20;;;21.70;78.20;;;;;;4201564;28;20052;-47
2021/06/30 05:26:28;;;;;;;0.05;0.05;;;21.70;78.20;;;;;;4207612;28;20086;-45
2021/06/30 05:28:55;;;;;;;0.10;0.10;;;21.70;78.20;;;;;;4207747;28;20048;-51
2021/06/30 05:31:17;;;;;;;0.35;0.35;;;21.70;78.50;;;;;;4193772;28;20051;-46
2021/06/30 05:33:44;;;;;;;0.00;0.00;;;21.70;78.40;;;;;;4210467;28;20539;-50
2021/06/30 05:36:11;;;;;;;0.00;0.00;;;21.70;78.30;;;;;;4211443;28;20534;-53
2021/06/30 05:38:40;;;;;;;0.00;0.00;;;21.70;78.20;;;;;;4209805;28;20063;-48
2021/06/30 05:41:07;;;;;;;0.22;0.22;;;21.70;78.10;;;;;;4202030;28;20083;-47
2021/06/30 05:43:36;;;;;;;0.38;0.25;;;21.70;78.00;;;;;;4210671;28;20048;-46
2021/06/30 05:46:03;;;;;;;4.47;1.65;;;21.70;77.90;;;;;;4210600;28;20036;-48
2021/06/30 05:48:24;;;;;;;0.10;0.10;;;21.70;77.90;;;;;;4210506;28;20490;-49
2021/06/30 05:50:51;;;;;;;0.00;0.00;;;21.70;77.80;;;;;;4210236;28;20047;-47
2021/06/30 05:53:18;;;;;;;0.00;0.00;;;21.70;77.70;;;;;;4210371;28;20055;-48
2021/06/30 05:55:46;;;;;;;0.00;0.00;;;21.60;77.60;;;;;;4210714;28;20461;-46
2021/06/30 05:58:13;;;;;;;0.20;0.20;;;21.60;77.50;;;;;;4210429;28;20119;-49
2021/06/30 06:00:42;;;;;;;0.00;0.00;;;21.60;77.50;;;;;;4193615;28;20372;-49
2021/06/30 06:03:09;;;;;;;0.05;0.05;;;21.60;77.50;;;;;;4199284;28;20051;-48
2021/06/30 06:05:36;;;;;;;0.10;0.10;;;21.60;77.50;;;;;;4204582;28;21425;-47
2021/06/30 06:08:04;;;;;;;9.23;1.65;;;21.60;77.40;;;;;;4209761;28;20044;-47
2021/06/30 06:10:31;;;;;;;0.90;0.90;;;21.60;77.40;;;;;;4209806;28;20056;-50
2021/06/30 06:12:59;;;;;;;0.13;0.13;;;21.60;77.40;;;;;;4200815;28;20470;-47
2021/06/30 06:15:27;;;;;;;0.00;0.00;;;21.60;77.30;;;;;;4209680;28;20054;-50
2021/06/30 06:17:54;;;;;;;0.73;0.73;;;21.60;77.30;;;;;;4210217;28;20052;-48
2021/06/30 06:20:20;;;;;;;0.00;0.00;;;21.50;77.20;;;;;;4209421;28;20048;-51
2021/06/30 06:22:48;;;;;;;0.20;0.20;;;21.50;77.10;;;;;;4189902;28;20051;-49
2021/06/30 06:25:15;;;;;;;0.00;0.00;;;21.50;77.20;;;;;;4203276;28;20044;-47
2021/06/30 06:27:38;;;;;;;0.08;0.08;;;21.50;77.10;;;;;;4197590;28;20062;-50
2021/06/30 06:30:08;;;;;;;0.35;0.35;;;21.50;77.10;;;;;;4209179;28;20127;-50
2021/06/30 06:32:35;;;;;;;0.00;0.00;;;21.50;77.10;;;;;;4208762;28;20048;-48
2021/06/30 06:35:02;;;;;;;0.10;0.10;;;21.50;77.00;;;;;;4201745;28;20044;-52
2021/06/30 06:37:29;;;;;;;0.65;0.65;;;21.50;77.00;;;;;;4208253;28;20475;-48
2021/06/30 06:39:56;;;;;;;0.55;0.55;;;21.50;77.60;;;;;;4209625;28;20036;-48
2021/06/30 06:42:24;;;;;;;0.00;0.00;;;21.50;77.70;;;;;;4209456;28;20059;-46
2021/06/30 06:44:51;;;;;;;0.00;0.00;;;21.60;77.80;;;;;;4193324;28;20059;-50
2021/06/30 06:47:19;;;;;;;0.00;0.00;;;21.60;77.60;;;;;;4192694;28;20040;-45
2021/06/30 06:49:46;;;;;;;0.40;0.40;;;21.60;77.40;;;;;;4194911;28;20411;-45
2021/06/30 06:52:13;;;;;;;0.00;0.00;;;21.60;77.40;;;;;;4210088;28;20047;-46
2021/06/30 06:54:40;;;;;;;1.08;0.95;;;21.60;77.30;;;;;;4208898;28;20063;-47
2021/06/30 06:57:07;;;;;;;0.10;0.10;;;21.60;77.20;;;;;;4209789;28;20425;-46
2021/06/30 06:59:34;;;;;;;0.00;0.00;;;21.60;77.20;;;;;;4209953;28;20052;-47
2021/06/30 07:02:01;;;;;;;1.73;1.65;;;21.60;77.10;;;;;;4193173;28;20114;-47
2021/06/30 07:04:30;;;;;;;0.00;0.00;;;21.60;78.00;;;;;;4192158;28;20055;-46
2021/06/30 07:06:56;;;;;;;1.60;1.55;;;21.50;76.90;;;;;;4192858;28;20041;-47
2021/06/30 07:09:23;;;;;;;0.15;0.15;;;21.50;76.90;;;;;;4192709;28;20410;-45
2021/06/30 07:11:51;;;;;;;0.00;0.00;;;21.50;76.90;;;;;;4192679;28;20139;-48
2021/06/30 07:14:17;;;;;;;1.55;1.40;;;21.50;76.90;;;;;;4192856;28;20483;-47
2021/06/30 07:16:44;;;;;;;0.25;0.25;;;21.50;76.90;;;;;;4192643;28;20060;-46
2021/06/30 07:19:11;;;;;;;0.10;0.10;;;21.50;76.80;;;;;;4179553;28;20040;-47
2021/06/30 07:21:39;;;;;;;0.55;0.55;;;21.50;76.80;;;;;;4182081;28;20091;-48
2021/06/30 07:24:07;;;;;;;0.00;0.00;;;21.50;76.70;;;;;;4192524;28;20047;-45
2021/06/30 07:26:34;;;;;;;0.00;0.00;;;21.50;76.80;;;;;;4192680;28;20048;-48
2021/06/30 07:29:01;;;;;;;0.00;0.00;;;21.50;76.70;;;;;;4192518;28;20052;-46
2021/06/30 07:31:28;;;;;;;0.10;0.10;;;21.50;76.70;;;;;;4208571;28;20047;-47
2021/06/30 07:33:56;;;;;;;0.00;0.00;;;21.50;76.70;;;;;;4208047;28;20057;-46
2021/06/30 07:36:23;;;;;;;0.30;0.30;;;21.40;76.60;;;;;;4207400;28;20134;-50
2021/06/30 07:38:51;;;;;;;0.00;0.00;;;21.40;76.60;;;;;;4207506;28;20525;-46
2021/06/30 07:41:18;;;;;;;0.00;0.00;;;21.40;76.60;;;;;;4208681;28;20434;-49
2021/06/30 07:43:45;;;;;;;0.10;0.10;;;21.40;76.60;;;;;;4208930;28;20052;-47
2021/06/30 07:46:08;;;;;;;0.00;0.00;;;21.40;76.50;;;;;;4208992;28;20508;-49
2021/06/30 07:48:30;;;;;;;0.10;0.10;;;21.40;76.50;;;;;;4208449;28;20058;-48
2021/06/30 07:50:52;;;;;;;0.90;0.90;;;21.40;76.50;;;;;;4208558;28;20126;-46
2021/06/30 07:53:15;;;;;;;0.00;0.00;;;21.40;76.50;;;;;;4207693;28;20414;-46
2021/06/30 07:55:39;;;;;;;0.63;0.63;;;21.40;76.40;;;;;;4209366;28;20044;-45
2021/06/30 07:58:01;;;;;;;0.63;0.63;;;21.40;76.40;;;;;;4209121;28;20139;-46
2021/06/30 08:00:23;;;;;;;0.13;0.13;;;21.40;76.40;;;;;;4209000;28;20039;-48
2021/06/30 08:02:45;;;;;;;0.25;0.25;;;21.40;76.40;;;;;;4208211;28;20486;-48
2021/06/30 08:05:10;;;;;;;0.00;0.00;;;21.40;76.40;;;;;;4208612;28;20540;-46
2021/06/30 08:07:33;;;;;;;0.15;0.15;;;21.40;76.40;;;;;;4208963;28;20430;-46
2021/06/30 08:09:55;;;;;;;0.00;0.00;;;21.40;76.40;;;;;;4221875;28;20047;-46
2021/06/30 08:12:19;;;;;;;0.57;0.32;;;21.40;76.30;;;;;;4208460;28;20063;-49
2021/06/30 08:14:44;;;;;;;0.20;0.20;;;21.40;76.30;;;;;;4208459;28;20051;-47
2021/06/30 08:17:06;;;;;;;0.40;0.32;;;21.40;76.20;;;;;;4208579;28;20052;-49
2021/06/30 08:19:28;;;;;;;1.95;1.05;;;21.40;76.20;;;;;;4208230;28;20833;-48
2021/06/30 08:21:51;;;;;;;0.00;0.00;;;21.40;76.20;;;;;;4206765;28;20051;-46
2021/06/30 08:24:14;;;;;;;0.75;0.75;;;21.40;76.30;;;;;;4208650;28;20077;-47
2021/06/30 08:26:36;;;;;;;0.05;0.05;;;21.40;76.30;;;;;;4208405;28;20489;-51
2021/06/30 08:29:00;;;;;;;0.03;0.03;;;21.40;76.30;;;;;;4208576;28;20048;-47
2021/06/30 08:31:22;;;;;;;0.28;0.28;;;21.40;76.30;;;;;;4208009;28;20044;-46
2021/06/30 08:33:44;;;;;;;0.57;0.57;;;21.40;76.30;;;;;;4208438;28;20387;-49
2021/06/30 08:36:06;;;;;;;0.00;0.00;;;21.30;76.30;;;;;;4208542;28;20733;-47
2021/06/30 08:38:29;;;;;;;0.30;0.30;;;21.30;76.20;;;;;;4208583;28;20536;-48
2021/06/30 08:40:54;;;;;;;0.00;0.00;;;21.30;76.20;;;;;;4206956;28;20054;-45
2021/06/30 08:43:16;;;;;;;0.00;0.00;;;21.30;76.20;;;;;;4208011;28;20044;-47
2021/06/30 08:45:42;;;;;;;0.00;0.00;;;21.30;76.20;;;;;;4208042;28;20486;-48
2021/06/30 08:48:05;;;;;;;0.00;0.00;;;21.30;76.30;;;;;;4208385;28;20047;-48
2021/06/30 08:50:27;;;;;;;0.00;0.00;;;21.30;76.30;;;;;;4208160;28;20056;-49
2021/06/30 08:52:51;;;;;;;1.00;1.00;;;21.30;76.30;;;;;;4192221;28;20053;-51
2021/06/30 08:55:28;;;;;;;0.00;0.00;;;21.30;76.30;;;;;;4189852;28;20045;-51
2021/06/30 08:57:51;;;;;;;0.00;0.00;;;21.30;76.30;;;;;;4191332;28;20422;-49
2021/06/30 09:00:14;;;;;;;0.20;0.20;;;21.30;76.20;;;;;;4190346;28;20445;-46
2021/06/30 09:02:37;;;;;;;0.10;0.10;;;21.30;76.30;;;;;;4204938;28;20094;-49
2021/06/30 09:05:24;;;;;;;0.43;0.43;;;21.30;76.30;;;;;;4207959;28;20052;-47
2021/06/30 09:07:50;;;;;;;1.08;0.85;;;21.30;76.30;;;;;;4205695;28;20044;-47
2021/06/30 09:10:29;;;;;;;0.00;0.00;;;21.30;76.30;;;;;;4204500;28;20494;-47
2021/06/30 09:12:51;;;;;;;0.63;0.63;;;21.30;76.30;;;;;;4205792;28;20127;-46
2021/06/30 09:15:18;;;;;;;0.10;0.10;;;21.30;76.30;;;;;;4207555;28;20044;-47
2021/06/30 09:17:43;;;;;;;0.00;0.00;;;21.30;76.30;;;;;;4207750;28;20048;-46
2021/06/30 09:20:07;;;;;;;0.00;0.00;;;21.30;77.20;;;;;;4207885;28;20052;-46
2021/06/30 09:22:40;;;;;;;0.00;0.00;;;21.30;76.40;;;;;;4207783;28;20048;-47
2021/06/30 09:25:28;;;;;;;0.22;0.22;;;21.30;76.40;;;;;;4207788;28;20059;-47
2021/06/30 09:27:50;;;;;;;0.00;0.00;;;21.30;76.40;;;;;;4207630;28;20058;-47
2021/06/30 09:30:14;;;;;;;0.00;0.00;;;21.30;76.40;;;;;;4207522;28;20052;-46
2021/06/30 09:32:36;;;;;;;0.00;0.00;;;21.30;76.40;;;;;;4191204;28;20044;-46
2021/06/30 09:35:23;;;;;;;0.00;0.00;;;21.30;76.60;;;;;;4191223;28;20052;-47
2021/06/30 09:37:51;;;;;;;0.08;0.08;;;21.30;76.40;;;;;;4191210;28;20060;-47
2021/06/30 09:40:15;;;;;;;0.00;0.00;;;21.30;76.40;;;;;;4191109;28;20056;-47
2021/06/30 09:42:37;;;;;;;0.00;0.00;;;21.30;76.50;;;;;;4191085;28;20052;-50
2021/06/30 09:45:15;;;;;;;0.00;0.00;;;21.30;76.50;;;;;;4158060;28;20076;-51
2021/06/30 09:47:43;;;;;;;0.00;0.00;;;21.30;76.50;;;;;;4156138;28;20060;-47
2021/06/30 09:50:06;;;;;;;0.75;0.75;;;21.30;76.50;;;;;;4156661;28;20048;-45
2021/06/30 09:52:39;;;;;;;0.10;0.10;;;21.20;76.50;;;;;;4155574;28;20128;-45
2021/06/30 09:55:01;;;;;;;0.08;0.08;;;21.20;76.50;;;;;;4141408;28;20500;-46
2021/06/30 09:57:23;;;;;;;0.10;0.10;;;21.20;76.50;;;;;;4166718;28;20052;-47
2021/06/30 09:59:51;;;;;;;0.00;0.00;;;21.20;76.50;;;;;;4171652;28;20049;-52
2021/06/30 10:02:16;;;;;;;0.00;0.00;;;21.20;76.50;;;;;;4158653;28;20057;-47
2021/06/30 10:04:40;;;;;;;0.57;0.57;;;21.20;76.50;;;;;;4173003;28;20067;-56
2021/06/30 10:07:10;;;;;;;0.00;0.00;;;21.20;76.50;;;;;;4174277;28;20053;-47
2021/06/30 10:09:39;;;;;;;0.00;0.00;;;21.20;77.10;;;;;;4162399;28;20116;-46
2021/06/30 10:12:05;;;;;;;0.00;0.00;;;21.30;77.20;;;;;;4157864;28;20147;-47
2021/06/30 10:14:28;;;;;;;0.00;0.00;;;21.30;77.00;;;;;;4157452;28;20099;-45
2021/06/30 10:16:51;;;;;;;2.92;1.17;;;21.30;76.80;;;;;;4159674;28;20709;-48
2021/06/30 10:19:13;;;;;;;1.00;0.55;;;21.30;76.70;;;;;;4159483;28;20079;-47
2021/06/30 10:21:36;;;;;;;0.32;0.30;;;21.30;76.70;;;;;;4184712;28;20041;-46
2021/06/30 10:23:58;;;;;;;0.00;0.00;;;21.30;76.60;;;;;;4157789;28;20056;-45
2021/06/30 10:26:23;;;;;;;0.73;0.55;;;21.30;76.60;;;;;;4163095;28;20702;-52
2021/06/30 10:28:50;;;;;;;0.00;0.00;;;21.30;76.60;;;;;;4176265;28;20400;-50
2021/06/30 10:31:12;;;;;;;0.00;0.00;;;21.30;76.70;;;;;;4175555;28;20140;-46
2021/06/30 10:33:38;;;;;;;0.00;0.00;;;21.30;76.70;;;;;;4173880;28;20052;-46
2021/06/30 10:36:01;;;;;;;1.65;1.10;;;21.30;76.80;;;;;;4173584;28;20098;-51
2021/06/30 10:38:23;;;;;;;0.00;0.00;;;21.30;76.80;;;;;;4189289;28;20040;-48
2021/06/30 10:40:45;;;;;;;0.00;0.00;;;21.30;76.80;;;;;;4176306;28;20048;-46
2021/06/30 10:43:13;;;;;;;0.28;0.28;;;21.30;76.80;;;;;;4182999;28;20044;-47
2021/06/30 10:45:35;;;;;;;0.00;0.00;;;21.30;76.80;;;;;;4209880;28;20040;-47
2021/06/30 10:48:04;;;;;;;0.00;0.00;;;21.30;76.80;;;;;;4209721;28;20147;-48
2021/06/30 10:50:29;;;;;;;0.00;0.00;;;21.20;76.80;;;;;;4208074;28;20051;-46
2021/06/30 10:52:53;;;;;;;0.20;0.20;;;21.30;76.90;;;;;;4209360;28;20565;-50
2021/06/30 10:55:51;;;;;;;0.00;0.00;;;21.20;76.90;;;;;;4210136;28;20048;-47
2021/06/30 10:58:19;;;;;;;0.00;0.00;;;21.20;76.90;;;;;;4209015;28;20481;-45
2021/06/30 11:00:43;;;;;;;0.63;0.63;;;21.20;77.00;;;;;;4199641;28;20147;-48
2021/06/30 11:03:26;;;;;;;0.22;0.22;;;21.20;77.10;;;;;;4209291;28;20048;-51
2021/06/30 11:05:49;;;;;;;0.05;0.05;;;21.20;77.10;;;;;;4209209;28;20071;-45
2021/06/30 11:08:50;;;;;;;0.00;0.00;;;21.20;77.20;;;;;;4209158;28;20413;-51
2021/06/30 11:11:14;;;;;;;0.28;0.28;;;21.20;77.20;;;;;;4185224;28;20059;-52
2021/06/30 11:14:01;;;;;;;0.35;0.35;;;21.20;77.20;;;;;;4209178;28;20071;-47
2021/06/30 11:16:49;;;;;;;0.00;0.00;;;21.20;77.30;;;;;;4203591;28;20044;-45
2021/06/30 11:19:45;;;;;;;4.15;0.85;;;21.20;77.40;;;;;;4200227;28;20465;-45
2021/06/30 11:22:21;;;;;;;0.00;0.00;;;21.20;77.40;;;;;;4192738;28;20075;-51
2021/06/30 11:24:49;;;;;;;0.00;0.00;;;21.20;77.40;;;;;;4203059;28;20046;-48
2021/06/30 11:27:54;;;;;;;0.38;0.38;;;21.20;77.40;;;;;;4192128;28;20403;-44
2021/06/30 11:30:36;;;;;;;0.00;0.00;;;21.20;77.30;;;;;;4206304;28;20486;-46
2021/06/30 11:32:58;;;;;;;0.00;0.00;;;21.20;77.40;;;;;;4203452;28;20078;-46
2021/06/30 11:35:26;;;;;;;0.00;0.00;;;21.20;77.30;;;;;;4197065;28;20753;-47
2021/06/30 11:37:56;;;;;;;0.00;0.00;;;21.20;77.40;;;;;;4207955;28;20054;-48
2021/06/30 11:40:22;;;;;;;0.00;0.00;;;21.10;77.30;;;;;;4207391;28;20128;-48
2021/06/30 11:42:49;;;;;;;1.00;0.98;;;21.10;77.30;;;;;;4208824;28;20054;-46
2021/06/30 11:45:18;;;;;;;0.32;0.32;;;21.20;77.40;;;;;;4201690;28;20060;-44
2021/06/30 11:47:43;;;;;;;0.03;0.03;;;21.20;77.40;;;;;;4203295;28;20055;-44
2021/06/30 11:50:06;;;;;;;2.47;2.28;;;21.10;77.30;;;;;;4205624;28;20125;-45
2021/06/30 11:52:28;;;;;;;6.13;2.38;;;21.20;77.30;;;;;;4207223;28;20040;-45
2021/06/30 11:54:55;;;;;;;0.13;0.13;;;21.10;77.30;;;;;;4207529;28;20058;-44
2021/06/30 11:57:17;;;;;;;3.10;0.63;;;21.20;77.20;;;;;;4207914;28;20044;-45
2021/06/30 11:59:39;;;;;;;0.00;0.00;;;21.10;77.10;;;;;;4206209;28;20048;-44
2021/06/30 12:02:01;;;;;;;0.65;0.65;;;21.10;77.10;;;;;;4204677;28;20048;-46
2021/06/30 12:04:26;;;;;;;0.00;0.00;;;21.20;77.10;;;;;;4207116;28;20502;-45
2021/06/30 12:06:50;;;;;;;0.00;0.00;;;21.10;77.10;;;;;;4208684;28;20051;-45
2021/06/30 12:09:15;;;;;;;0.40;0.40;;;21.10;77.10;;;;;;4208000;28;20059;-47
2021/06/30 12:11:39;;;;;;;0.15;0.15;;;21.10;77.10;;;;;;4205174;28;20048;-44
2021/06/30 12:14:09;;;;;;;0.10;0.10;;;21.10;77.10;;;;;;4207254;28;20498;-46
2021/06/30 12:16:53;;;;;;;0.00;0.00;;;21.10;77.10;;;;;;4207131;28;20064;-44
2021/06/30 12:19:18;;;;;;;0.20;0.20;;;21.20;77.10;;;;;;4208146;28;20048;-47
2021/06/30 12:21:43;;;;;;;0.52;0.40;;;21.20;77.10;;;;;;4207852;28;20060;-48
2021/06/30 12:24:13;;;;;;;0.00;0.00;;;21.10;77.10;;;;;;4207686;28;20036;-50
2021/06/30 12:26:35;;;;;;;0.00;0.00;;;21.10;77.10;;;;;;4208102;28;20101;-45
2021/06/30 12:28:58;;;;;;;0.08;0.08;;;21.10;77.10;;;;;;4207801;28;20811;-44
2021/06/30 12:31:20;;;;;;;0.90;0.90;;;21.10;77.50;;;;;;4191057;28;20048;-45
2021/06/30 12:33:42;;;;;;;5.95;1.77;;;21.10;77.10;;;;;;4196363;28;20093;-44
2021/06/30 12:36:05;;;;;;;0.32;0.32;;;21.10;77.10;;;;;;4207934;28;20056;-45
2021/06/30 12:38:31;;;;;;;0.75;0.52;;;21.20;77.20;;;;;;4207585;28;20234;-44
2021/06/30 12:41:05;;;;;;;0.22;0.22;;;21.10;77.20;;;;;;4201833;28;20047;-44
2021/06/30 12:43:26;;;;;;;0.00;0.00;;;21.10;77.20;;;;;;4206375;28;20070;-45
2021/06/30 12:45:51;;;;;;;0.00;0.00;;;21.20;77.40;;;;;;4207909;28;20518;-47
2021/06/30 12:48:16;;;;;;;0.17;0.17;;;21.20;77.40;;;;;;4207303;28;20048;-48